sensor_id;sensor_type;location;lat;lon;timestamp;pressure;altitude;pressure_sealevel;temperature;humidity
56894;BME280;43392;50.078;13.704;2023-03-02T00:01:17;97542.03;;;-0.49;72.64
56894;BME280;43392;50.078;13.704;2023-03-02T00:03:46;97554.56;;;-0.51;72.66
56894;BME280;43392;50.078;13.704;2023-03-02T00:06:12;97556.50;;;-0.59;72.38
56894;BME280;43392;50.078;13.704;2023-03-02T00:08:39;97574.53;;;-0.63;73.03
56894;BME280;43392;50.078;13.704;2023-03-02T00:11:06;97570.81;;;-0.69;72.63
56894;BME280;43392;50.078;13.704;2023-03-02T00:13:34;97573.38;;;-0.75;72.83
56894;BME280;43392;50.078;13.704;2023-03-02T00:16:02;97563.88;;;-0.76;73.28
56894;BME280;43392;50.078;13.704;2023-03-02T00:18:29;97577.47;;;-0.73;73.21
56894;BME280;43392;50.078;13.704;2023-03-02T00:20:57;97574.66;;;-0.71;73.19
56894;BME280;43392;50.078;13.704;2023-03-02T00:23:23;97567.38;;;-0.69;72.79
56894;BME280;43392;50.078;13.704;2023-03-02T00:25:50;97574.28;;;-0.68;73.30
56894;BME280;43392;50.078;13.704;2023-03-02T00:28:16;97578.72;;;-0.69;73.32
56894;BME280;43392;50.078;13.704;2023-03-02T00:30:43;97578.28;;;-0.72;73.27
56894;BME280;43392;50.078;13.704;2023-03-02T00:33:10;97577.84;;;-0.76;73.30
56894;BME280;43392;50.078;13.704;2023-03-02T00:35:37;97577.25;;;-0.78;73.39
56894;BME280;43392;50.078;13.704;2023-03-02T00:38:05;97581.69;;;-0.78;73.75
56894;BME280;43392;50.078;13.704;2023-03-02T00:40:32;97576.41;;;-0.78;73.74
56894;BME280;43392;50.078;13.704;2023-03-02T00:42:58;97580.03;;;-0.79;73.85
56894;BME280;43392;50.078;13.704;2023-03-02T00:45:25;97577.41;;;-0.79;73.93
56894;BME280;43392;50.078;13.704;2023-03-02T00:47:51;97568.06;;;-0.82;74.02
56894;BME280;43392;50.078;13.704;2023-03-02T00:50:18;97571.72;;;-0.83;73.89
56894;BME280;43392;50.078;13.704;2023-03-02T00:52:45;97569.25;;;-0.84;73.42
56894;BME280;43392;50.078;13.704;2023-03-02T00:55:12;97561.56;;;-0.86;73.77
56894;BME280;43392;50.078;13.704;2023-03-02T00:57:39;97564.81;;;-0.84;73.62
56894;BME280;43392;50.078;13.704;2023-03-02T01:00:07;97551.84;;;-0.85;73.61
56894;BME280;43392;50.078;13.704;2023-03-02T01:02:34;97558.34;;;-0.81;73.89
56894;BME280;43392;50.078;13.704;2023-03-02T01:05:03;97557.53;;;-0.82;73.85
56894;BME280;43392;50.078;13.704;2023-03-02T01:07:30;97553.47;;;-0.84;73.45
56894;BME280;43392;50.078;13.704;2023-03-02T01:09:57;97550.31;;;-0.94;73.37
56894;BME280;43392;50.078;13.704;2023-03-02T01:12:25;97544.66;;;-0.98;73.73
56894;BME280;43392;50.078;13.704;2023-03-02T01:14:51;97546.91;;;-0.95;73.57
56894;BME280;43392;50.078;13.704;2023-03-02T01:17:18;97543.25;;;-0.94;73.80
56894;BME280;43392;50.078;13.704;2023-03-02T01:19:46;97535.19;;;-0.92;73.43
56894;BME280;43392;50.078;13.704;2023-03-02T01:22:13;97526.84;;;-0.96;73.75
56894;BME280;43392;50.078;13.704;2023-03-02T01:24:39;97527.09;;;-0.91;73.90
56894;BME280;43392;50.078;13.704;2023-03-02T01:27:06;97523.63;;;-0.91;73.85
56894;BME280;43392;50.078;13.704;2023-03-02T01:29:34;97522.03;;;-0.92;73.67
56894;BME280;43392;50.078;13.704;2023-03-02T01:32:00;97516.09;;;-0.94;73.71
56894;BME280;43392;50.078;13.704;2023-03-02T01:34:27;97493.75;;;-1.05;73.52
56894;BME280;43392;50.078;13.704;2023-03-02T01:36:54;97511.63;;;-1.00;74.13
56894;BME280;43392;50.078;13.704;2023-03-02T01:39:20;97505.72;;;-1.02;73.98
56894;BME280;43392;50.078;13.704;2023-03-02T01:41:49;97510.38;;;-1.04;74.38
56894;BME280;43392;50.078;13.704;2023-03-02T01:44:39;97514.00;;;-1.05;74.24
56894;BME280;43392;50.078;13.704;2023-03-02T01:47:11;97505.84;;;-1.10;73.87
56894;BME280;43392;50.078;13.704;2023-03-02T01:49:41;97500.34;;;-1.15;73.83
56894;BME280;43392;50.078;13.704;2023-03-02T01:52:10;97501.47;;;-1.24;73.97
56894;BME280;43392;50.078;13.704;2023-03-02T01:54:37;97507.56;;;-1.24;74.10
56894;BME280;43392;50.078;13.704;2023-03-02T01:57:05;97492.34;;;-1.28;74.37
56894;BME280;43392;50.078;13.704;2023-03-02T01:59:32;97504.72;;;-1.22;73.96
56894;BME280;43392;50.078;13.704;2023-03-02T02:02:04;97495.03;;;-1.22;74.19
56894;BME280;43392;50.078;13.704;2023-03-02T02:04:33;97495.59;;;-1.26;73.96
56894;BME280;43392;50.078;13.704;2023-03-02T02:07:04;97489.00;;;-1.37;74.16
56894;BME280;43392;50.078;13.704;2023-03-02T02:09:33;97484.94;;;-1.40;74.40
56894;BME280;43392;50.078;13.704;2023-03-02T02:12:00;97481.69;;;-1.42;74.40
56894;BME280;43392;50.078;13.704;2023-03-02T02:14:27;97489.00;;;-1.37;74.99
56894;BME280;43392;50.078;13.704;2023-03-02T02:16:54;97483.53;;;-1.36;74.73
56894;BME280;43392;50.078;13.704;2023-03-02T02:19:34;97484.56;;;-1.37;74.98
56894;BME280;43392;50.078;13.704;2023-03-02T02:22:03;97483.75;;;-1.37;74.74
56894;BME280;43392;50.078;13.704;2023-03-02T02:24:33;97469.50;;;-1.43;74.67
56894;BME280;43392;50.078;13.704;2023-03-02T02:27:05;97469.97;;;-1.39;74.94
56894;BME280;43392;50.078;13.704;2023-03-02T02:29:35;97464.25;;;-1.43;75.06
56894;BME280;43392;50.078;13.704;2023-03-02T02:32:09;97474.16;;;-1.45;75.12
56894;BME280;43392;50.078;13.704;2023-03-02T02:34:40;97468.28;;;-1.47;74.85
56894;BME280;43392;50.078;13.704;2023-03-02T02:37:12;97467.03;;;-1.51;74.59
56894;BME280;43392;50.078;13.704;2023-03-02T02:39:42;97462.56;;;-1.50;75.14
56894;BME280;43392;50.078;13.704;2023-03-02T02:42:14;97469.25;;;-1.48;75.25
56894;BME280;43392;50.078;13.704;2023-03-02T02:44:42;97453.47;;;-1.48;75.13
56894;BME280;43392;50.078;13.704;2023-03-02T02:47:15;97459.56;;;-1.47;75.22
56894;BME280;43392;50.078;13.704;2023-03-02T02:49:43;97450.84;;;-1.48;75.20
56894;BME280;43392;50.078;13.704;2023-03-02T02:52:13;97449.03;;;-1.47;75.65
56894;BME280;43392;50.078;13.704;2023-03-02T02:54:43;97451.50;;;-1.46;75.05
56894;BME280;43392;50.078;13.704;2023-03-02T02:57:12;97446.88;;;-1.44;75.50
56894;BME280;43392;50.078;13.704;2023-03-02T02:59:44;97445.84;;;-1.43;75.43
56894;BME280;43392;50.078;13.704;2023-03-02T03:02:16;97444.84;;;-1.42;75.35
56894;BME280;43392;50.078;13.704;2023-03-02T03:04:43;97446.88;;;-1.44;75.06
56894;BME280;43392;50.078;13.704;2023-03-02T03:07:17;97435.84;;;-1.54;75.05
56894;BME280;43392;50.078;13.704;2023-03-02T03:09:46;97433.31;;;-1.62;75.14
56894;BME280;43392;50.078;13.704;2023-03-02T03:12:17;97436.78;;;-1.61;75.66
56894;BME280;43392;50.078;13.704;2023-03-02T03:14:46;97439.41;;;-1.61;75.90
56894;BME280;43392;50.078;13.704;2023-03-02T03:17:13;97440.22;;;-1.61;75.59
56894;BME280;43392;50.078;13.704;2023-03-02T03:19:41;97435.78;;;-1.60;75.82
56894;BME280;43392;50.078;13.704;2023-03-02T03:22:09;97435.13;;;-1.62;75.67
56894;BME280;43392;50.078;13.704;2023-03-02T03:24:37;97438.59;;;-1.62;75.77
56894;BME280;43392;50.078;13.704;2023-03-02T03:27:05;97435.13;;;-1.62;75.37
56894;BME280;43392;50.078;13.704;2023-03-02T03:29:35;97433.31;;;-1.62;75.65
56894;BME280;43392;50.078;13.704;2023-03-02T03:32:02;97437.97;;;-1.64;75.81
56894;BME280;43392;50.078;13.704;2023-03-02T03:34:29;97429.44;;;-1.66;75.72
56894;BME280;43392;50.078;13.704;2023-03-02T03:36:56;97430.69;;;-1.62;75.74
56894;BME280;43392;50.078;13.704;2023-03-02T03:39:26;97428.69;;;-1.60;76.17
56894;BME280;43392;50.078;13.704;2023-03-02T03:41:53;97429.72;;;-1.61;76.16
56894;BME280;43392;50.078;13.704;2023-03-02T03:44:19;97428.88;;;-1.61;75.77
56894;BME280;43392;50.078;13.704;2023-03-02T03:46:48;97435.13;;;-1.62;76.01
56894;BME280;43392;50.078;13.704;2023-03-02T03:49:14;97421.69;;;-1.74;76.35
56894;BME280;43392;50.078;13.704;2023-03-02T03:51:41;97431.09;;;-1.65;76.49
56894;BME280;43392;50.078;13.704;2023-03-02T03:54:08;97435.53;;;-1.65;76.10
56894;BME280;43392;50.078;13.704;2023-03-02T03:56:37;97437.75;;;-1.62;75.96
56894;BME280;43392;50.078;13.704;2023-03-02T03:59:06;97438.59;;;-1.62;76.02
56894;BME280;43392;50.078;13.704;2023-03-02T04:01:34;97431.50;;;-1.61;76.30
56894;BME280;43392;50.078;13.704;2023-03-02T04:04:04;97434.09;;;-1.68;75.93
56894;BME280;43392;50.078;13.704;2023-03-02T04:06:31;97435.69;;;-1.67;76.20
56894;BME280;43392;50.078;13.704;2023-03-02T04:08:58;97437.34;;;-1.66;76.18
56894;BME280;43392;50.078;13.704;2023-03-02T04:11:28;97435.53;;;-1.65;76.08
56894;BME280;43392;50.078;13.704;2023-03-02T04:13:55;97433.63;;;-1.71;75.79
56894;BME280;43392;50.078;13.704;2023-03-02T04:16:21;97429.31;;;-1.79;75.73
56894;BME280;43392;50.078;13.704;2023-03-02T04:18:48;97446.19;;;-1.88;76.40
56894;BME280;43392;50.078;13.704;2023-03-02T04:21:16;97445.13;;;-1.93;76.55
56894;BME280;43392;50.078;13.704;2023-03-02T04:23:42;97437.16;;;-2.00;76.73
56894;BME280;43392;50.078;13.704;2023-03-02T04:26:09;97441.25;;;-1.97;77.24
56894;BME280;43392;50.078;13.704;2023-03-02T04:28:35;97446.75;;;-1.92;77.22
56894;BME280;43392;50.078;13.704;2023-03-02T04:31:02;97446.19;;;-1.88;77.26
56894;BME280;43392;50.078;13.704;2023-03-02T04:33:29;97438.13;;;-1.86;77.17
56894;BME280;43392;50.078;13.704;2023-03-02T04:35:56;97440.88;;;-1.94;76.81
56894;BME280;43392;50.078;13.704;2023-03-02T04:38:24;97437.44;;;-1.95;76.87
56894;BME280;43392;50.078;13.704;2023-03-02T04:40:53;97436.53;;;-2.02;77.16
56894;BME280;43392;50.078;13.704;2023-03-02T04:43:20;97436.63;;;-2.10;77.11
56894;BME280;43392;50.078;13.704;2023-03-02T04:45:47;97447.34;;;-2.12;77.34
56894;BME280;43392;50.078;13.704;2023-03-02T04:48:13;97442.72;;;-2.10;77.26
56894;BME280;43392;50.078;13.704;2023-03-02T04:50:40;97439.88;;;-2.08;77.16
56894;BME280;43392;50.078;13.704;2023-03-02T04:53:06;97438.28;;;-2.09;77.47
56894;BME280;43392;50.078;13.704;2023-03-02T04:55:34;97445.69;;;-2.13;77.09
56894;BME280;43392;50.078;13.704;2023-03-02T04:58:01;97444.88;;;-2.13;77.66
56894;BME280;43392;50.078;13.704;2023-03-02T05:00:28;97447.34;;;-2.12;77.22
56894;BME280;43392;50.078;13.704;2023-03-02T05:02:58;97444.34;;;-2.09;77.59
56894;BME280;43392;50.078;13.704;2023-03-02T05:05:25;97451.06;;;-2.06;76.94
56894;BME280;43392;50.078;13.704;2023-03-02T05:07:52;97445.16;;;-2.08;77.12
56894;BME280;43392;50.078;13.704;2023-03-02T05:10:20;97441.28;;;-2.12;76.88
56894;BME280;43392;50.078;13.704;2023-03-02T05:12:48;97449.25;;;-2.20;76.71
56894;BME280;43392;50.078;13.704;2023-03-02T05:15:23;97451.25;;;-2.22;77.12
56894;BME280;43392;50.078;13.704;2023-03-02T05:17:49;97445.16;;;-2.23;77.06
56894;BME280;43392;50.078;13.704;2023-03-02T05:20:16;97451.88;;;-2.20;77.45
56894;BME280;43392;50.078;13.704;2023-03-02T05:22:43;97438.94;;;-2.22;76.88
56894;BME280;43392;50.078;13.704;2023-03-02T05:25:11;97447.44;;;-2.20;76.73
56894;BME280;43392;50.078;13.704;2023-03-02T05:27:37;97447.44;;;-2.20;76.53
56894;BME280;43392;50.078;13.704;2023-03-02T05:30:07;97445.63;;;-2.19;76.98
56894;BME280;43392;50.078;13.704;2023-03-02T05:32:33;97447.44;;;-2.20;76.84
56894;BME280;43392;50.078;13.704;2023-03-02T05:35:00;97450.06;;;-2.20;76.72
56894;BME280;43392;50.078;13.704;2023-03-02T05:37:26;97453.72;;;-2.21;76.83
56894;BME280;43392;50.078;13.704;2023-03-02T05:39:53;97446.81;;;-2.22;77.12
56894;BME280;43392;50.078;13.704;2023-03-02T05:42:20;97452.88;;;-2.21;77.21
56894;BME280;43392;50.078;13.704;2023-03-02T05:44:46;97458.97;;;-2.21;76.97
56894;BME280;43392;50.078;13.704;2023-03-02T05:47:14;97452.88;;;-2.21;77.20
56894;BME280;43392;50.078;13.704;2023-03-02T05:49:41;97462.38;;;-2.20;76.84
56894;BME280;43392;50.078;13.704;2023-03-02T05:52:07;97455.16;;;-2.18;76.85
56894;BME280;43392;50.078;13.704;2023-03-02T05:54:34;97454.34;;;-2.19;76.90
56894;BME280;43392;50.078;13.704;2023-03-02T05:57:00;97452.53;;;-2.18;76.73
56894;BME280;43392;50.078;13.704;2023-03-02T05:59:27;97454.13;;;-2.17;76.73
56894;BME280;43392;50.078;13.704;2023-03-02T06:01:54;97461.19;;;-2.18;76.97
56894;BME280;43392;50.078;13.704;2023-03-02T06:04:24;97457.38;;;-2.15;76.92
56894;BME280;43392;50.078;13.704;2023-03-02T06:06:51;97458.22;;;-2.15;77.19
56894;BME280;43392;50.078;13.704;2023-03-02T06:09:17;97460.41;;;-2.18;76.44
56894;BME280;43392;50.078;13.704;2023-03-02T06:11:44;97460.56;;;-2.20;76.40
56894;BME280;43392;50.078;13.704;2023-03-02T06:14:11;97459.38;;;-2.17;77.17
56894;BME280;43392;50.078;13.704;2023-03-02T06:16:37;97462.66;;;-2.15;76.76
56894;BME280;43392;50.078;13.704;2023-03-02T06:19:04;97462.28;;;-2.12;76.94
56894;BME280;43392;50.078;13.704;2023-03-02T06:21:32;97453.03;;;-2.08;76.73
56894;BME280;43392;50.078;13.704;2023-03-02T06:23:58;97454.31;;;-2.04;76.81
56894;BME280;43392;50.078;13.704;2023-03-02T06:26:25;97445.88;;;-1.99;76.43
56894;BME280;43392;50.078;13.704;2023-03-02T06:28:51;97453.19;;;-1.95;76.56
56894;BME280;43392;50.078;13.704;2023-03-02T06:31:18;97455.25;;;-1.90;76.17
56894;BME280;43392;50.078;13.704;2023-03-02T06:33:44;97464.59;;;-1.88;76.11
56894;BME280;43392;50.078;13.704;2023-03-02T06:36:11;97449.44;;;-1.86;76.52
56894;BME280;43392;50.078;13.704;2023-03-02T06:38:40;97460.69;;;-1.77;76.40
56894;BME280;43392;50.078;13.704;2023-03-02T06:41:07;97457.50;;;-1.73;76.09
56894;BME280;43392;50.078;13.704;2023-03-02T06:43:33;97454.50;;;-1.70;75.82
56894;BME280;43392;50.078;13.704;2023-03-02T06:46:00;97466.06;;;-1.64;75.54
56894;BME280;43392;50.078;13.704;2023-03-02T06:48:26;97465.28;;;-1.65;76.20
56894;BME280;43392;50.078;13.704;2023-03-02T06:50:53;97460.44;;;-1.61;75.91
56894;BME280;43392;50.078;13.704;2023-03-02T06:53:20;97468.94;;;-1.59;76.04
56894;BME280;43392;50.078;13.704;2023-03-02T06:55:49;97471.41;;;-1.58;75.58
56894;BME280;43392;50.078;13.704;2023-03-02T06:58:15;97463.25;;;-1.63;75.81
56894;BME280;43392;50.078;13.704;2023-03-02T07:00:42;97464.81;;;-1.68;76.29
56894;BME280;43392;50.078;13.704;2023-03-02T07:03:09;97467.50;;;-1.62;76.67
56894;BME280;43392;50.078;13.704;2023-03-02T07:05:35;97459.06;;;-1.57;76.45
56894;BME280;43392;50.078;13.704;2023-03-02T07:08:02;97467.66;;;-1.49;76.90
56894;BME280;43392;50.078;13.704;2023-03-02T07:10:29;97464.34;;;-1.36;76.33
56894;BME280;43392;50.078;13.704;2023-03-02T07:12:57;97470.72;;;-1.24;77.80
56894;BME280;43392;50.078;13.704;2023-03-02T07:15:23;97468.38;;;0.25;96.97
56894;BME280;43392;50.078;13.704;2023-03-02T07:17:50;97459.03;;;1.99;86.41
56894;BME280;43392;50.078;13.704;2023-03-02T07:20:17;97449.91;;;3.26;81.38
56894;BME280;43392;50.078;13.704;2023-03-02T07:22:44;97451.31;;;4.26;74.09
56894;BME280;43392;50.078;13.704;2023-03-02T07:25:11;97452.91;;;5.40;71.71
56894;BME280;43392;50.078;13.704;2023-03-02T07:27:39;97446.97;;;6.58;66.78
56894;BME280;43392;50.078;13.704;2023-03-02T07:30:08;97443.16;;;7.66;60.44
56894;BME280;43392;50.078;13.704;2023-03-02T07:32:35;97439.59;;;7.77;54.84
56894;BME280;43392;50.078;13.704;2023-03-02T07:35:02;97446.09;;;6.41;53.11
56894;BME280;43392;50.078;13.704;2023-03-02T07:37:29;97445.25;;;4.19;56.18
56894;BME280;43392;50.078;13.704;2023-03-02T07:39:55;97462.41;;;2.57;61.00
56894;BME280;43392;50.078;13.704;2023-03-02T07:42:22;97457.53;;;1.52;63.80
56894;BME280;43392;50.078;13.704;2023-03-02T07:44:51;97468.75;;;0.82;65.76
56894;BME280;43392;50.078;13.704;2023-03-02T07:47:18;97465.00;;;0.44;68.39
56894;BME280;43392;50.078;13.704;2023-03-02T07:49:45;97469.44;;;0.30;69.16
56894;BME280;43392;50.078;13.704;2023-03-02T07:52:12;97462.94;;;0.26;70.09
56894;BME280;43392;50.078;13.704;2023-03-02T07:54:38;97466.16;;;0.22;70.03
56894;BME280;43392;50.078;13.704;2023-03-02T07:57:05;97462.28;;;0.18;71.18
56894;BME280;43392;50.078;13.704;2023-03-02T07:59:31;97464.31;;;0.22;71.28
56894;BME280;43392;50.078;13.704;2023-03-02T08:01:58;97469.22;;;0.25;71.73
56894;BME280;43392;50.078;13.704;2023-03-02T08:04:26;97471.63;;;0.27;71.79
56894;BME280;43392;50.078;13.704;2023-03-02T08:06:52;97467.78;;;0.23;71.76
56894;BME280;43392;50.078;13.704;2023-03-02T08:09:19;97464.53;;;0.14;72.26
56894;BME280;43392;50.078;13.704;2023-03-02T08:11:45;97464.75;;;0.19;72.77
56894;BME280;43392;50.078;13.704;2023-03-02T08:14:13;97462.13;;;0.26;72.54
56894;BME280;43392;50.078;13.704;2023-03-02T08:16:39;97457.28;;;0.36;71.73
56894;BME280;43392;50.078;13.704;2023-03-02T08:19:06;97459.09;;;0.42;71.23
56894;BME280;43392;50.078;13.704;2023-03-02T08:21:35;97463.19;;;0.44;70.92
56894;BME280;43392;50.078;13.704;2023-03-02T08:24:02;97463.16;;;0.38;71.40
56894;BME280;43392;50.078;13.704;2023-03-02T08:26:29;97455.66;;;0.35;71.74
56894;BME280;43392;50.078;13.704;2023-03-02T08:28:56;97462.34;;;0.37;71.67
56894;BME280;43392;50.078;13.704;2023-03-02T08:31:22;97466.63;;;0.45;71.66
56894;BME280;43392;50.078;13.704;2023-03-02T08:33:49;97455.47;;;0.56;71.56
56894;BME280;43392;50.078;13.704;2023-03-02T08:36:18;97450.03;;;0.57;71.23
56894;BME280;43392;50.078;13.704;2023-03-02T08:38:46;97461.78;;;0.68;71.51
56894;BME280;43392;50.078;13.704;2023-03-02T08:41:15;97455.94;;;0.79;71.52
56894;BME280;43392;50.078;13.704;2023-03-02T08:43:42;97453.09;;;0.94;71.08
56894;BME280;43392;50.078;13.704;2023-03-02T08:46:10;97452.50;;;1.11;70.90
56894;BME280;43392;50.078;13.704;2023-03-02T08:48:37;97448.81;;;1.19;69.85
56894;BME280;43392;50.078;13.704;2023-03-02T08:51:05;97444.34;;;1.19;69.87
56894;BME280;43392;50.078;13.704;2023-03-02T08:53:35;97440.28;;;1.30;68.46
56894;BME280;43392;50.078;13.704;2023-03-02T08:56:04;97439.66;;;1.48;68.62
56894;BME280;43392;50.078;13.704;2023-03-02T08:58:31;97438.19;;;1.58;66.91
56894;BME280;43392;50.078;13.704;2023-03-02T09:00:58;97437.38;;;1.71;66.97
56894;BME280;43392;50.078;13.704;2023-03-02T09:03:24;97432.47;;;1.81;67.36
56894;BME280;43392;50.078;13.704;2023-03-02T09:05:51;97428.75;;;1.95;67.27
56894;BME280;43392;50.078;13.704;2023-03-02T09:08:18;97440.28;;;2.07;66.78
56894;BME280;43392;50.078;13.704;2023-03-02T09:10:45;97442.91;;;2.14;66.39
56894;BME280;43392;50.078;13.704;2023-03-02T09:13:13;97438.78;;;2.24;66.23
56894;BME280;43392;50.078;13.704;2023-03-02T09:15:39;97430.00;;;2.30;65.47
56894;BME280;43392;50.078;13.704;2023-03-02T09:18:06;97439.75;;;2.36;65.61
56894;BME280;43392;50.078;13.704;2023-03-02T09:20:33;97424.47;;;2.38;65.79
56894;BME280;43392;50.078;13.704;2023-03-02T09:22:59;97434.38;;;2.49;65.06
56894;BME280;43392;50.078;13.704;2023-03-02T09:25:26;97438.59;;;2.57;64.65
56894;BME280;43392;50.078;13.704;2023-03-02T09:27:53;97429.59;;;2.64;64.85
56894;BME280;43392;50.078;13.704;2023-03-02T09:30:21;97433.16;;;2.77;64.53
56894;BME280;43392;50.078;13.704;2023-03-02T09:32:47;97428.63;;;2.84;64.64
56894;BME280;43392;50.078;13.704;2023-03-02T09:35:14;97424.09;;;2.91;64.94
56894;BME280;43392;50.078;13.704;2023-03-02T09:37:40;97413.25;;;2.99;64.49
56894;BME280;43392;50.078;13.704;2023-03-02T09:40:15;97418.88;;;3.09;64.74
56894;BME280;43392;50.078;13.704;2023-03-02T09:43:03;97421.84;;;3.19;64.02
56894;BME280;43392;50.078;13.704;2023-03-02T09:45:42;97421.59;;;3.27;63.72
56894;BME280;43392;50.078;13.704;2023-03-02T09:48:22;97425.56;;;3.36;62.64
56894;BME280;43392;50.078;13.704;2023-03-02T09:51:01;97417.53;;;3.43;62.85
56894;BME280;43392;50.078;13.704;2023-03-02T09:53:40;97419.94;;;3.51;62.66
56894;BME280;43392;50.078;13.704;2023-03-02T09:56:14;97416.59;;;3.55;61.41
56894;BME280;43392;50.078;13.704;2023-03-02T09:58:41;97413.69;;;3.63;61.76
56894;BME280;43392;50.078;13.704;2023-03-02T10:01:16;97409.13;;;3.70;61.26
56894;BME280;43392;50.078;13.704;2023-03-02T10:03:51;97402.47;;;3.79;61.56
56894;BME280;43392;50.078;13.704;2023-03-02T10:06:20;97409.91;;;3.89;60.49
56894;BME280;43392;50.078;13.704;2023-03-02T10:08:47;97403.50;;;3.96;60.06
56894;BME280;43392;50.078;13.704;2023-03-02T10:11:17;97400.41;;;3.99;59.71
56894;BME280;43392;50.078;13.704;2023-03-02T10:13:50;97401.81;;;4.02;59.40
56894;BME280;43392;50.078;13.704;2023-03-02T10:16:29;97398.63;;;4.12;59.56
56894;BME280;43392;50.078;13.704;2023-03-02T10:19:05;97401.75;;;4.20;59.55
56894;BME280;43392;50.078;13.704;2023-03-02T10:21:37;97407.56;;;4.29;58.59
56894;BME280;43392;50.078;13.704;2023-03-02T10:24:13;97398.72;;;4.35;58.99
56894;BME280;43392;50.078;13.704;2023-03-02T10:26:42;97397.59;;;4.42;58.60
56894;BME280;43392;50.078;13.704;2023-03-02T10:29:28;97393.22;;;4.48;58.43
56894;BME280;43392;50.078;13.704;2023-03-02T10:32:03;97386.41;;;4.52;58.26
56894;BME280;43392;50.078;13.704;2023-03-02T10:34:33;97390.03;;;4.57;58.33
56894;BME280;43392;50.078;13.704;2023-03-02T10:37:01;97390.81;;;4.58;57.84
56894;BME280;43392;50.078;13.704;2023-03-02T10:39:27;97385.06;;;4.72;61.45
56894;BME280;43392;50.078;13.704;2023-03-02T10:41:57;97393.78;;;4.91;59.16
56894;BME280;43392;50.078;13.704;2023-03-02T10:44:29;97385.72;;;4.98;57.75
56894;BME280;43392;50.078;13.704;2023-03-02T10:46:58;97392.19;;;5.02;57.69
56894;BME280;43392;50.078;13.704;2023-03-02T10:49:27;97373.69;;;5.07;57.65
56894;BME280;43392;50.078;13.704;2023-03-02T10:51:56;97385.25;;;5.12;57.10
56894;BME280;43392;50.078;13.704;2023-03-02T10:54:24;97375.56;;;5.18;56.92
56894;BME280;43392;50.078;13.704;2023-03-02T10:56:55;97376.84;;;5.27;57.41
56894;BME280;43392;50.078;13.704;2023-03-02T10:59:41;97370.34;;;5.34;56.12
56894;BME280;43392;50.078;13.704;2023-03-02T11:02:18;97368.97;;;5.44;56.66
56894;BME280;43392;50.078;13.704;2023-03-02T11:04:48;97366.97;;;5.51;56.95
56894;BME280;43392;50.078;13.704;2023-03-02T11:07:21;97362.34;;;5.58;56.34
56894;BME280;43392;50.078;13.704;2023-03-02T11:09:59;97365.94;;;5.63;55.51
56894;BME280;43392;50.078;13.704;2023-03-02T11:12:27;97361.75;;;5.67;55.52
56894;BME280;43392;50.078;13.704;2023-03-02T11:15:17;97365.09;;;5.74;55.40
56894;BME280;43392;50.078;13.704;2023-03-02T11:17:47;97360.94;;;5.78;54.37
56894;BME280;43392;50.078;13.704;2023-03-02T11:20:15;97359.66;;;5.81;54.24
56894;BME280;43392;50.078;13.704;2023-03-02T11:22:51;97355.03;;;5.88;54.70
56894;BME280;43392;50.078;13.704;2023-03-02T11:25:25;97347.63;;;5.90;54.67
56894;BME280;43392;50.078;13.704;2023-03-02T11:27:58;97356.84;;;5.99;54.22
56894;BME280;43392;50.078;13.704;2023-03-02T11:30:26;97353.97;;;6.00;53.97
56894;BME280;43392;50.078;13.704;2023-03-02T11:33:01;97344.69;;;6.03;53.87
56894;BME280;43392;50.078;13.704;2023-03-02T11:35:33;97345.38;;;6.10;53.23
56894;BME280;43392;50.078;13.704;2023-03-02T11:38:09;97348.13;;;6.15;53.72
56894;BME280;43392;50.078;13.704;2023-03-02T11:40:43;97342.31;;;6.18;53.45
56894;BME280;43392;50.078;13.704;2023-03-02T11:43:10;97334.66;;;6.22;52.97
56894;BME280;43392;50.078;13.704;2023-03-02T11:45:43;97343.78;;;6.26;53.12
56894;BME280;43392;50.078;13.704;2023-03-02T11:48:17;97343.88;;;6.31;53.41
56894;BME280;43392;50.078;13.704;2023-03-02T11:50:53;97338.88;;;6.34;53.32
56894;BME280;43392;50.078;13.704;2023-03-02T11:53:23;97336.53;;;6.38;52.76
56894;BME280;43392;50.078;13.704;2023-03-02T11:55:52;97332.59;;;6.40;52.93
56894;BME280;43392;50.078;13.704;2023-03-02T11:58:21;97329.47;;;6.43;52.91
56894;BME280;43392;50.078;13.704;2023-03-02T12:00:48;97320.50;;;6.49;53.38
56894;BME280;43392;50.078;13.704;2023-03-02T12:03:22;97326.72;;;6.55;53.09
56894;BME280;43392;50.078;13.704;2023-03-02T12:06:00;97319.63;;;6.60;54.08
56894;BME280;43392;50.078;13.704;2023-03-02T12:08:34;97316.25;;;6.65;52.91
56894;BME280;43392;50.078;13.704;2023-03-02T12:11:04;97319.47;;;6.67;53.01
56894;BME280;43392;50.078;13.704;2023-03-02T12:13:33;97319.81;;;6.71;52.58
56894;BME280;43392;50.078;13.704;2023-03-02T12:16:01;97313.66;;;6.70;53.01
56894;BME280;43392;50.078;13.704;2023-03-02T12:18:45;97312.94;;;6.75;52.56
56894;BME280;43392;50.078;13.704;2023-03-02T12:21:15;97317.28;;;6.81;53.03
56894;BME280;43392;50.078;13.704;2023-03-02T12:23:57;97309.38;;;6.86;52.52
56894;BME280;43392;50.078;13.704;2023-03-02T12:26:28;97300.06;;;6.88;52.40
56894;BME280;43392;50.078;13.704;2023-03-02T12:28:58;97293.72;;;6.89;52.29
56894;BME280;43392;50.078;13.704;2023-03-02T12:31:25;97299.34;;;6.93;51.79
56894;BME280;43392;50.078;13.704;2023-03-02T12:33:54;97290.88;;;6.96;51.76
56894;BME280;43392;50.078;13.704;2023-03-02T12:36:25;97282.06;;;6.95;52.56
56894;BME280;43392;50.078;13.704;2023-03-02T12:39:12;97285.88;;;6.99;52.58
56894;BME280;43392;50.078;13.704;2023-03-02T12:41:57;97279.25;;;7.02;53.14
56894;BME280;43392;50.078;13.704;2023-03-02T12:44:39;97272.91;;;7.08;52.80
56894;BME280;43392;50.078;13.704;2023-03-02T12:47:13;97269.50;;;7.12;52.57
56894;BME280;43392;50.078;13.704;2023-03-02T12:49:45;97262.09;;;7.14;52.69
56894;BME280;43392;50.078;13.704;2023-03-02T12:52:21;97259.16;;;7.16;52.00
56894;BME280;43392;50.078;13.704;2023-03-02T12:55:03;97259.16;;;7.16;52.44
56894;BME280;43392;50.078;13.704;2023-03-02T12:57:30;97259.72;;;7.18;51.77
56894;BME280;43392;50.078;13.704;2023-03-02T12:59:59;97248.56;;;7.21;52.03
56894;BME280;43392;50.078;13.704;2023-03-02T13:02:27;97229.75;;;7.11;52.11
56894;BME280;43392;50.078;13.704;2023-03-02T13:04:57;97246.78;;;7.26;52.00